Alstead, New Hampshire
Current Conditions -  °F | °C
As of 4:54 PM on Monday 24 Nov 2014 (Local Time) from KVSF Reporting Station
Clear Clear  
Wind Chill: 60°   Ceiling: Unl
Heat Index: 60°   Visibility: 10mi
Dew Point: 56°   Wind: 7mph
Humidity: 86%   Direction: 180°S
Pressure: 29.51"   Gusts: NA
Location:  43.15°N, 72.36°W
Report Text: KVSF 242154Z AUTO 18006KT 10SM CLR 16/13 A2951 RMK AO2 SLP995 T01560133
Loading
Personal Weather Stations






























Interactive Weather Map New forecast layout! Learn more

10-Day Weather Forecast

Advertisements
Track Severe Weather on mobile